createdAt,value
2023-01-05T00:02:25.537Z,8.70
2023-01-05T00:05:11.294Z,8.70
2023-01-05T00:07:56.527Z,8.70
2023-01-05T00:11:00.375Z,8.70
2023-01-05T00:14:04.209Z,9.60
2023-01-05T00:17:08.752Z,8.80
2023-01-05T00:20:12.586Z,8.80
2023-01-05T00:22:57.931Z,9.00
2023-01-05T00:25:43.571Z,8.90
2023-01-05T00:28:29.082Z,9.00
2023-01-05T00:31:14.553Z,10.00
2023-01-05T00:33:59.943Z,9.40
2023-01-05T00:36:45.546Z,9.20
2023-01-05T00:39:31.012Z,9.10
2023-01-05T00:42:16.462Z,9.10
2023-01-05T00:45:02.311Z,9.20
2023-01-05T00:47:48.032Z,9.20
2023-01-05T00:50:33.591Z,9.90
2023-01-05T00:53:19.103Z,10.80
2023-01-05T00:56:04.929Z,9.20
2023-01-05T00:58:54.118Z,9.10
2023-01-05T01:01:39.789Z,9.20
2023-01-05T01:04:25.357Z,9.30
2023-01-05T01:07:10.783Z,9.10
2023-01-05T01:09:56.323Z,9.30
2023-01-05T01:12:44.393Z,9.20
2023-01-05T01:15:29.769Z,9.30
2023-01-05T01:18:15.503Z,10.00
2023-01-05T01:21:00.879Z,9.20
2023-01-05T01:23:46.104Z,9.30
2023-01-05T01:26:31.663Z,9.20
2023-01-05T01:29:19.991Z,9.30
2023-01-05T01:32:05.642Z,9.20
2023-01-05T01:34:51.140Z,9.10
2023-01-05T01:37:36.420Z,9.00
2023-01-05T01:40:22.038Z,8.80
2023-01-05T01:43:20.417Z,9.10
2023-01-05T01:46:06.127Z,8.90
2023-01-05T01:49:05.463Z,8.80
2023-01-05T01:51:51.014Z,8.70
2023-01-05T01:54:36.732Z,8.70
2023-01-05T01:57:23.953Z,8.50
2023-01-05T02:00:10.696Z,8.60
2023-01-05T02:02:56.676Z,8.70
2023-01-05T02:05:42.055Z,8.70
2023-01-05T02:08:33.221Z,9.40
2023-01-05T02:11:42.919Z,8.70
2023-01-05T02:14:28.148Z,8.70
2023-01-05T02:17:25.996Z,9.60
2023-01-05T02:20:28.885Z,8.70
2023-01-05T02:23:49.465Z,8.60
2023-01-05T02:26:51.231Z,8.60
2023-01-05T02:30:09.999Z,8.90
2023-01-05T02:33:18.224Z,8.90
2023-01-05T02:36:28.966Z,8.80
2023-01-05T02:39:28.915Z,9.00
2023-01-05T02:42:21.137Z,8.90
2023-01-05T02:45:08.466Z,8.90
2023-01-05T02:47:54.447Z,9.00
2023-01-05T02:50:49.412Z,8.90
2023-01-05T02:53:37.225Z,9.00
2023-01-05T02:56:22.686Z,9.00
2023-01-05T02:59:12.697Z,9.00
2023-01-05T03:02:24.607Z,9.00
2023-01-05T03:05:16.763Z,8.90
2023-01-05T03:08:09.246Z,9.00
2023-01-05T03:11:26.331Z,9.00
2023-01-05T03:14:21.613Z,8.90
2023-01-05T03:17:11.494Z,8.90
2023-01-05T03:19:58.503Z,9.00
2023-01-05T03:23:04.595Z,9.00
2023-01-05T03:26:10.036Z,9.00
2023-01-05T03:29:18.904Z,9.80
2023-01-05T03:32:43.869Z,9.20
2023-01-05T03:35:32.970Z,9.00
2023-01-05T03:38:30.465Z,9.00
2023-01-05T03:41:17.661Z,9.00
2023-01-05T03:44:03.142Z,9.20
2023-01-05T03:46:48.655Z,9.00
2023-01-05T03:49:34.062Z,8.90
2023-01-05T03:52:19.558Z,9.00
2023-01-05T03:55:05.772Z,9.10
2023-01-05T03:57:51.289Z,9.10
2023-01-05T04:00:36.908Z,9.10
2023-01-05T04:03:27.715Z,9.10
2023-01-05T04:06:14.865Z,9.10
2023-01-05T04:09:00.374Z,9.00
2023-01-05T04:11:45.950Z,8.90
2023-01-05T04:14:31.476Z,8.70
2023-01-05T04:17:17.047Z,8.80
2023-01-05T04:20:02.620Z,8.90
2023-01-05T04:22:48.221Z,9.00
2023-01-05T04:25:33.767Z,8.80
2023-01-05T04:28:19.157Z,8.80
2023-01-05T04:31:04.838Z,8.90
2023-01-05T04:33:49.958Z,8.70
2023-01-05T04:36:35.599Z,8.80
2023-01-05T04:39:21.172Z,10.90
2023-01-05T04:42:06.813Z,9.70
2023-01-05T04:44:52.246Z,8.90
2023-01-05T04:47:37.773Z,9.30
2023-01-05T04:50:23.990Z,9.00
2023-01-05T04:53:09.564Z,9.10
2023-01-05T04:55:54.796Z,9.10
2023-01-05T04:58:40.397Z,9.10
2023-01-05T05:01:26.428Z,9.10
2023-01-05T05:04:11.854Z,9.10
2023-01-05T05:06:57.495Z,8.90
2023-01-05T05:09:43.055Z,9.00
2023-01-05T05:12:28.475Z,9.10
2023-01-05T05:15:14.072Z,8.90
2023-01-05T05:18:02.854Z,8.80
2023-01-05T05:20:52.605Z,8.80
2023-01-05T05:23:37.938Z,8.90
2023-01-05T05:26:23.580Z,8.90
2023-01-05T05:29:09.037Z,8.80
2023-01-05T05:31:54.415Z,8.70
2023-01-05T05:34:40.121Z,8.80
2023-01-05T05:37:25.469Z,8.80
2023-01-05T05:40:11.859Z,8.80
2023-01-05T05:42:57.487Z,8.70
2023-01-05T05:45:49.717Z,8.80
2023-01-05T05:48:35.781Z,8.60
2023-01-05T05:51:21.350Z,8.90
2023-01-05T05:54:07.040Z,8.80
2023-01-05T05:56:52.584Z,8.80
2023-01-05T05:59:38.102Z,8.90
2023-01-05T06:02:23.539Z,9.00
2023-01-05T06:05:09.483Z,8.90
2023-01-05T06:07:55.056Z,8.90
2023-01-05T06:10:40.508Z,8.80
2023-01-05T06:13:26.243Z,8.90
2023-01-05T06:16:11.693Z,8.80
2023-01-05T06:18:57.214Z,8.90
2023-01-05T06:21:42.784Z,8.90
2023-01-05T06:24:28.273Z,9.00
2023-01-05T06:27:13.705Z,9.00
2023-01-05T06:29:59.343Z,8.90
2023-01-05T06:32:44.602Z,9.00
2023-01-05T06:35:30.332Z,9.00
2023-01-05T06:38:16.516Z,8.80
2023-01-05T06:41:01.851Z,9.00
2023-01-05T06:43:47.264Z,9.00
2023-01-05T06:46:32.859Z,8.90
2023-01-05T06:49:18.486Z,9.00
2023-01-05T06:52:04.121Z,9.00
2023-01-05T06:54:49.420Z,9.10
2023-01-05T06:57:36.595Z,9.00
2023-01-05T07:00:22.188Z,9.10
2023-01-05T07:03:07.780Z,9.20
2023-01-05T07:05:53.080Z,9.70
2023-01-05T07:08:38.651Z,9.00
2023-01-05T07:11:24.091Z,9.10
2023-01-05T07:14:09.563Z,9.20
2023-01-05T07:16:55.332Z,9.20
2023-01-05T07:19:40.799Z,9.20
2023-01-05T07:22:28.192Z,9.30
2023-01-05T07:25:13.725Z,9.40
2023-01-05T07:27:59.134Z,11.20
2023-01-05T07:30:51.397Z,9.50
2023-01-05T07:33:40.038Z,9.50
2023-01-05T07:36:25.978Z,9.60
2023-01-05T07:39:11.454Z,9.60
2023-01-05T07:41:57.052Z,9.60
2023-01-05T07:44:42.309Z,9.70
2023-01-05T07:47:27.898Z,10.40
2023-01-05T07:50:13.662Z,9.60
2023-01-05T07:52:59.925Z,9.60
2023-01-05T07:55:54.556Z,9.40
2023-01-05T07:58:40.222Z,9.40
2023-01-05T08:01:25.913Z,9.50
2023-01-05T08:04:11.355Z,9.50
2023-01-05T08:06:56.879Z,9.30
2023-01-05T08:10:00.876Z,9.30
2023-01-05T08:13:04.624Z,9.30
2023-01-05T08:15:52.037Z,9.30
2023-01-05T08:18:37.580Z,9.30
2023-01-05T08:21:22.931Z,9.30
2023-01-05T08:24:08.561Z,9.30
2023-01-05T08:26:53.738Z,9.50
2023-01-05T08:29:39.282Z,9.40
2023-01-05T08:32:24.982Z,9.40
2023-01-05T08:35:10.490Z,9.60
2023-01-05T08:37:55.878Z,9.70
2023-01-05T08:40:41.304Z,9.60
2023-01-05T08:43:26.820Z,9.60
2023-01-05T08:46:12.612Z,9.60
2023-01-05T08:49:00.340Z,9.60
2023-01-05T08:51:45.975Z,9.60
2023-01-05T08:54:31.532Z,9.60
2023-01-05T08:57:17.164Z,9.60
2023-01-05T09:00:03.840Z,9.80
2023-01-05T09:02:49.490Z,9.90
2023-01-05T09:05:34.782Z,9.80
2023-01-05T09:08:20.435Z,10.80
2023-01-05T09:11:10.984Z,9.80
2023-01-05T09:13:59.464Z,10.00
2023-01-05T09:19:50.760Z,10.90
2023-01-05T09:22:36.391Z,10.20
2023-01-05T09:25:21.718Z,10.20
2023-01-05T09:28:06.862Z,10.10
2023-01-05T09:30:52.426Z,10.20
2023-01-05T09:33:39.015Z,10.30
2023-01-05T09:36:25.744Z,12.20
2023-01-05T09:39:11.383Z,10.40
2023-01-05T09:42:00.718Z,10.50
2023-01-05T09:45:00.935Z,10.60
2023-01-05T09:47:47.023Z,10.70
2023-01-05T09:50:32.719Z,10.70
2023-01-05T09:53:26.139Z,10.90
2023-01-05T09:59:51.676Z,11.00
2023-01-05T10:03:00.981Z,11.20
2023-01-05T10:05:47.828Z,11.20
2023-01-05T10:08:38.378Z,13.00
2023-01-05T10:12:19.434Z,12.00
2023-01-05T10:15:13.736Z,10.90
2023-01-05T10:18:02.428Z,11.10
2023-01-05T10:21:08.470Z,11.30
2023-01-05T10:24:15.781Z,11.20
2023-01-05T10:27:25.536Z,11.20
2023-01-05T10:30:22.975Z,11.50
2023-01-05T10:33:41.536Z,11.40
2023-01-05T10:37:08.066Z,11.60
2023-01-05T10:40:09.536Z,12.00
2023-01-05T10:43:34.647Z,12.10
2023-01-05T10:46:42.614Z,12.00
2023-01-05T10:49:29.668Z,12.10
2023-01-05T10:52:18.260Z,12.10
2023-01-05T10:55:15.220Z,12.10
2023-01-05T10:58:00.541Z,12.20
2023-01-05T11:00:46.083Z,12.20
2023-01-05T11:06:47.030Z,11.90
2023-01-05T11:09:33.855Z,11.50
2023-01-05T11:12:22.310Z,11.40
2023-01-05T11:15:15.545Z,11.50
2023-01-05T11:18:01.990Z,11.60
2023-01-05T11:21:08.866Z,11.70
2023-01-05T11:23:56.778Z,11.70
2023-01-05T11:26:51.256Z,11.80
2023-01-05T11:29:36.708Z,11.70
2023-01-05T11:32:22.412Z,12.30
2023-01-05T11:35:37.752Z,11.90
2023-01-05T11:38:29.049Z,12.00
2023-01-05T11:41:14.865Z,12.00
2023-01-05T11:44:03.222Z,12.00
2023-01-05T11:46:49.725Z,12.00
2023-01-05T11:49:36.693Z,12.20
2023-01-05T11:52:28.169Z,12.30
2023-01-05T11:55:19.714Z,12.20
2023-01-05T11:58:32.767Z,12.40
2023-01-05T12:01:30.209Z,12.80
2023-01-05T12:04:30.932Z,12.80
2023-01-05T12:07:28.631Z,13.00
2023-01-05T12:10:35.360Z,13.00
2023-01-05T12:13:42.943Z,13.00
2023-01-05T12:16:54.998Z,13.20
2023-01-05T12:19:52.833Z,13.20
2023-01-05T12:23:02.468Z,13.20
2023-01-05T12:26:26.583Z,13.10
2023-01-05T12:36:12.431Z,13.00
2023-01-05T12:39:05.363Z,13.70
2023-01-05T12:42:07.280Z,13.70
2023-01-05T12:45:11.202Z,13.00
2023-01-05T12:48:13.425Z,13.10
2023-01-05T12:51:01.722Z,13.00
2023-01-05T12:54:15.538Z,13.00
2023-01-05T12:57:26.199Z,12.90
2023-01-05T13:00:15.648Z,12.90
2023-01-05T13:03:02.893Z,12.80
2023-01-05T13:06:08.792Z,12.80
2023-01-05T13:08:58.296Z,13.50
2023-01-05T13:11:49.011Z,12.70
2023-01-05T13:14:37.313Z,12.70
2023-01-05T13:17:32.505Z,12.70
2023-01-05T13:20:25.924Z,12.90
2023-01-05T13:23:22.636Z,12.70
2023-01-05T13:26:14.701Z,12.80
2023-01-05T13:29:01.566Z,12.80
2023-01-05T13:32:12.234Z,12.80
2023-01-05T13:35:33.219Z,12.70
2023-01-05T13:39:00.311Z,12.60
2023-01-05T13:41:59.067Z,12.60
2023-01-05T13:45:12.191Z,12.60
2023-01-05T13:48:45.361Z,12.70
2023-01-05T13:51:47.479Z,12.20
2023-01-05T13:55:00.047Z,12.80
2023-01-05T13:57:48.059Z,12.90
2023-01-05T14:00:43.042Z,13.50
2023-01-05T14:06:43.362Z,12.80
2023-01-05T14:09:40.155Z,14.00
2023-01-05T14:12:42.124Z,12.80
2023-01-05T14:15:42.671Z,13.40
2023-01-05T14:18:50.796Z,13.00
2023-01-05T14:21:53.848Z,13.10
2023-01-05T14:24:47.487Z,13.30
2023-01-05T14:28:11.563Z,13.30
2023-01-05T14:31:14.470Z,13.50
2023-01-05T14:34:09.680Z,13.40
2023-01-05T14:36:58.316Z,13.40
2023-01-05T14:39:45.461Z,13.40
2023-01-05T14:42:38.071Z,13.30
2023-01-05T14:45:26.805Z,13.40
2023-01-05T14:48:29.755Z,14.30
2023-01-05T14:51:26.290Z,13.40
2023-01-05T14:54:11.904Z,13.30
2023-01-05T14:57:25.305Z,13.20
2023-01-05T15:00:10.867Z,13.30
2023-01-05T15:03:01.272Z,13.40
2023-01-05T15:06:09.659Z,14.00
2023-01-05T15:09:32.623Z,13.30
2023-01-05T15:12:42.902Z,13.10
2023-01-05T15:15:44.890Z,13.00
2023-01-05T15:18:57.799Z,12.70
2023-01-05T15:22:12.888Z,12.50
2023-01-05T15:25:21.460Z,12.50
2023-01-05T15:28:43.645Z,12.40
2023-01-05T15:31:50.144Z,12.30
2023-01-05T15:34:41.918Z,12.30
2023-01-05T15:37:38.686Z,12.20
2023-01-05T15:40:24.021Z,12.00
2023-01-05T15:43:17.033Z,11.90
2023-01-05T15:46:02.543Z,11.70
2023-01-05T15:48:52.148Z,12.20
2023-01-05T15:51:37.955Z,12.20
2023-01-05T15:54:26.671Z,11.30
2023-01-05T15:57:20.937Z,11.20
2023-01-05T16:00:21.463Z,11.10
2023-01-05T16:03:27.616Z,11.00
2023-01-05T16:06:28.125Z,10.90
2023-01-05T16:09:31.477Z,10.70
2023-01-05T16:12:23.993Z,10.70
2023-01-05T16:15:20.188Z,11.00
2023-01-05T16:18:10.151Z,10.40
2023-01-05T16:20:57.160Z,10.30
2023-01-05T16:24:11.222Z,10.20
2023-01-05T16:26:57.471Z,10.20
2023-01-05T16:29:45.535Z,10.10
2023-01-05T16:32:38.438Z,10.00
2023-01-05T16:35:48.133Z,9.90
2023-01-05T16:38:34.463Z,9.90
2023-01-05T16:41:26.951Z,9.80
2023-01-05T16:44:13.742Z,9.70
2023-01-05T16:47:07.944Z,9.60
2023-01-05T16:49:58.244Z,10.70
2023-01-05T16:53:09.831Z,9.50
2023-01-05T16:55:57.238Z,9.50
2023-01-05T16:58:45.011Z,9.40
2023-01-05T17:01:35.916Z,9.40
2023-01-05T17:04:21.679Z,9.40
2023-01-05T17:07:09.254Z,9.30
2023-01-05T17:09:54.787Z,9.30
2023-01-05T17:12:40.197Z,9.40
2023-01-05T17:15:29.700Z,9.30
2023-01-05T17:18:26.381Z,9.40
2023-01-05T17:21:25.213Z,9.20
2023-01-05T17:24:13.174Z,9.10
2023-01-05T17:26:59.059Z,9.00
2023-01-05T17:29:44.359Z,9.10
2023-01-05T17:32:30.139Z,9.20
2023-01-05T17:35:18.557Z,9.10
2023-01-05T17:38:05.592Z,9.00
2023-01-05T17:40:51.166Z,8.90
2023-01-05T17:43:36.680Z,8.80
2023-01-05T17:46:28.892Z,8.80
2023-01-05T17:49:20.588Z,8.80
2023-01-05T17:52:06.197Z,8.70
2023-01-05T17:54:51.602Z,8.70
2023-01-05T17:57:37.573Z,8.70
2023-01-05T18:00:25.407Z,8.50
2023-01-05T18:03:15.820Z,8.50
2023-01-05T18:06:02.153Z,8.40
2023-01-05T18:08:47.601Z,8.40
2023-01-05T18:14:23.914Z,8.20
2023-01-05T18:17:09.664Z,8.10
2023-01-05T18:19:55.323Z,8.10
2023-01-05T18:22:41.181Z,8.10
2023-01-05T18:25:26.671Z,8.10
2023-01-05T18:28:12.709Z,7.90
2023-01-05T18:30:57.945Z,8.00
2023-01-05T18:33:43.776Z,7.90
2023-01-05T18:36:28.833Z,7.80
2023-01-05T18:39:14.633Z,7.70
2023-01-05T18:42:00.328Z,7.80
2023-01-05T18:44:45.831Z,7.80
2023-01-05T18:47:31.641Z,7.70
2023-01-05T18:50:17.035Z,7.60
2023-01-05T18:53:02.335Z,7.60
2023-01-05T18:55:48.120Z,7.50
2023-01-05T18:58:33.840Z,7.60
2023-01-05T19:01:21.082Z,7.50
2023-01-05T19:04:06.584Z,7.50
2023-01-05T19:06:52.200Z,7.60
2023-01-05T19:09:38.193Z,7.50
2023-01-05T19:12:23.601Z,7.50
2023-01-05T19:15:09.687Z,7.60
2023-01-05T19:17:55.919Z,7.50
2023-01-05T19:20:41.194Z,7.30
2023-01-05T19:23:26.824Z,7.20
2023-01-05T19:26:12.406Z,7.30
2023-01-05T19:28:59.686Z,7.20
2023-01-05T19:31:45.698Z,7.20
2023-01-05T19:34:31.128Z,7.10
2023-01-05T19:37:16.661Z,7.10
2023-01-05T19:40:02.890Z,7.20
2023-01-05T19:42:48.317Z,7.10
2023-01-05T19:45:34.256Z,7.10
2023-01-05T19:48:19.520Z,6.90
2023-01-05T19:51:08.319Z,6.90
2023-01-05T19:53:57.639Z,6.90
2023-01-05T19:56:44.098Z,6.80
2023-01-05T19:59:35.179Z,6.90
2023-01-05T20:02:20.675Z,6.70
2023-01-05T20:05:06.810Z,6.80
2023-01-05T20:07:52.201Z,6.80
2023-01-05T20:10:39.637Z,6.80
2023-01-05T20:13:25.244Z,6.60
2023-01-05T20:16:12.578Z,6.70
2023-01-05T20:18:58.382Z,6.70
2023-01-05T20:21:43.927Z,6.70
2023-01-05T20:24:32.178Z,6.80
2023-01-05T20:27:18.888Z,6.60
2023-01-05T20:30:04.622Z,6.60
2023-01-05T20:32:50.044Z,6.50
2023-01-05T20:35:39.304Z,6.30
2023-01-05T20:38:24.558Z,6.30
2023-01-05T20:41:38.042Z,7.30
2023-01-05T20:44:26.215Z,6.00
2023-01-05T20:47:12.230Z,6.10
2023-01-05T20:49:57.840Z,6.00
2023-01-05T20:52:43.446Z,6.50
2023-01-05T20:55:28.920Z,6.00
2023-01-05T20:58:14.520Z,6.10
2023-01-05T21:01:10.849Z,5.90
2023-01-05T21:03:57.858Z,5.90
2023-01-05T21:06:43.558Z,5.70
2023-01-05T21:09:30.564Z,5.70
2023-01-05T21:12:15.866Z,5.70
2023-01-05T21:15:01.325Z,5.60
2023-01-05T21:17:46.904Z,5.50
2023-01-05T21:20:32.458Z,5.90
2023-01-05T21:23:17.864Z,5.60
2023-01-05T21:26:13.501Z,5.40
2023-01-05T21:29:00.159Z,5.40
2023-01-05T21:31:45.365Z,5.50
2023-01-05T21:34:30.889Z,5.50
2023-01-05T21:37:16.478Z,5.60
2023-01-05T21:40:02.864Z,5.40
2023-01-05T21:42:50.249Z,5.40
2023-01-05T21:45:35.637Z,5.50
2023-01-05T21:48:21.182Z,5.50
2023-01-05T21:51:25.186Z,5.40
2023-01-05T21:54:30.126Z,5.80
2023-01-05T21:57:15.925Z,5.20
2023-01-05T22:00:01.242Z,5.10
2023-01-05T22:02:46.946Z,5.20
2023-01-05T22:05:32.135Z,5.10
2023-01-05T22:08:18.218Z,5.30
2023-01-05T22:11:05.066Z,5.30
2023-01-05T22:13:50.719Z,5.20
2023-01-05T22:16:37.126Z,5.30
2023-01-05T22:19:22.410Z,5.20
2023-01-05T22:22:07.728Z,5.30
2023-01-05T22:24:53.138Z,5.20
2023-01-05T22:27:38.666Z,5.10
2023-01-05T22:30:26.013Z,5.10
2023-01-05T22:33:11.492Z,5.30
2023-01-05T22:36:00.002Z,5.10
2023-01-05T22:38:47.775Z,5.20
2023-01-05T22:41:33.170Z,5.20
2023-01-05T22:44:19.017Z,5.40
2023-01-05T22:47:04.467Z,5.20
2023-01-05T22:49:49.673Z,5.30
2023-01-05T22:52:35.346Z,5.30
2023-01-05T22:55:20.845Z,5.30
2023-01-05T22:58:06.344Z,5.40
2023-01-05T23:00:52.295Z,6.00
2023-01-05T23:03:38.193Z,5.40
2023-01-05T23:06:24.026Z,5.30
2023-01-05T23:09:13.452Z,5.40
2023-01-05T23:11:59.810Z,5.30
2023-01-05T23:14:45.516Z,5.30
2023-01-05T23:17:31.226Z,5.30
2023-01-05T23:20:17.016Z,5.10
2023-01-05T23:23:02.802Z,5.10
2023-01-05T23:25:49.423Z,4.90
2023-01-05T23:28:35.678Z,4.80
2023-01-05T23:31:20.964Z,4.90
2023-01-05T23:34:06.067Z,5.20
2023-01-05T23:36:51.879Z,5.00
2023-01-05T23:39:37.195Z,5.20
2023-01-05T23:42:41.438Z,5.10
2023-01-05T23:45:26.748Z,5.20
2023-01-05T23:48:13.002Z,5.40
2023-01-05T23:50:58.904Z,5.30
2023-01-05T23:53:46.638Z,5.20
2023-01-05T23:56:31.985Z,4.90
2023-01-05T23:59:17.232Z,4.90
